Time;durP1;ratioP1;P1;durP2;ratioP2;P2;SDS_P1;SDS_P2;PMS_P1;PMS_P2;Temp;Humidity;BMP_temperature;BMP_pressure;BME280_temperature;BME280_humidity;BME280_pressure;Samples;Min_cycle;Max_cycle;Signal;HPM_P1;HPM_P2
2021/12/24 00:01:34;;;;;;;14.18;2.17;;;;;;;;;;4884544;29;20402;-65
2021/12/24 00:04:09;;;;;;;10.57;1.73;;;;;;;;;;4895442;29;20053;-67
2021/12/24 00:06:44;;;;;;;15.05;2.05;;;;;;;;;;4896420;29;20555;-65
2021/12/24 00:09:23;;;;;;;22.30;2.90;;;;;;;;;;4863893;29;20460;-68
2021/12/24 00:11:59;;;;;;;6.10;1.77;;;;;;;;;;4911826;29;20460;-66
2021/12/24 00:14:32;;;;;;;16.92;1.90;;;;;;;;;;4911739;29;20539;-67
2021/12/24 00:17:05;;;;;;;16.73;1.60;;;;;;;;;;4914205;29;20082;-66
2021/12/24 00:19:44;;;;;;;9.60;1.65;;;;;;;;;;4898407;29;20056;-65
2021/12/24 00:36:22;;;;;;;14.13;2.47;;;;;;;;;;4957081;28;20106;-66
2021/12/24 00:39:13;;;;;;;14.13;1.73;;;;;;;;;;4913981;29;20044;-66
2021/12/24 00:41:45;;;;;;;;;;;;;;;;;;4873813;29;20053;-66
2021/12/24 00:44:17;;;;;;;8.30;1.55;;;;;;;;;;4891254;29;19923;-68
2021/12/24 00:46:48;;;;;;;5.03;1.60;;;;;;;;;;4874949;29;20076;-67
2021/12/24 00:49:21;;;;;;;11.02;1.52;;;;;;;;;;4894758;29;20048;-66
2021/12/24 00:52:07;;;;;;;9.43;2.08;;;;;;;;;;4888337;29;20077;-68
2021/12/24 00:57:37;;;;;;;10.45;1.77;;;;;;;;;;4856682;29;20066;-66
2021/12/24 01:00:33;;;;;;;14.75;1.95;;;;;;;;;;4857235;29;20163;-67
2021/12/24 01:03:25;;;;;;;13.70;1.70;;;;;;;;;;4868655;29;20528;-69
2021/12/24 01:06:17;;;;;;;9.05;1.67;;;;;;;;;;4829434;29;20060;-70
2021/12/24 01:08:53;;;;;;;10.10;1.65;;;;;;;;;;4885486;29;20057;-66
2021/12/24 01:11:27;;;;;;;7.70;1.77;;;;;;;;;;4887176;29;20057;-68
2021/12/24 01:13:59;;;;;;;12.23;1.30;;;;;;;;;;4856630;29;20511;-67
2021/12/24 01:16:39;;;;;;;7.78;2.00;;;;;;;;;;4823528;29;20415;-67
2021/12/24 01:19:18;;;;;;;13.60;1.73;;;;;;;;;;4848470;29;20050;-67
2021/12/24 01:22:36;;;;;;;9.15;1.50;;;;;;;;;;4856610;29;20057;-67
2021/12/24 01:25:14;;;;;;;12.85;1.50;;;;;;;;;;4838053;29;20054;-67
2021/12/24 01:44:49;;;;;;;18.55;2.08;;;;;;;;;;4875297;29;20060;-67
2021/12/24 01:47:21;;;;;;;15.65;1.65;;;;;;;;;;4857215;29;20073;-68
2021/12/24 01:49:52;;;;;;;;;;;;;;;;;;4871710;29;20425;-68
2021/12/24 01:52:25;;;;;;;10.90;1.85;;;;;;;;;;4863190;29;19928;-68
2021/12/24 01:54:57;;;;;;;13.10;2.22;;;;;;;;;;4808496;29;20065;-67
2021/12/24 01:57:48;;;;;;;8.52;1.55;;;;;;;;;;4756521;29;20052;-67
2021/12/24 02:00:24;;;;;;;7.30;1.60;;;;;;;;;;4816250;29;20069;-70
2021/12/24 02:02:56;;;;;;;9.75;2.15;;;;;;;;;;4846452;29;20052;-68
2021/12/24 02:05:31;;;;;;;10.75;2.03;;;;;;;;;;4893596;29;20064;-68
2021/12/24 02:08:03;;;;;;;15.45;2.80;;;;;;;;;;4893025;29;20523;-68
2021/12/24 02:10:35;;;;;;;9.98;1.73;;;;;;;;;;4884033;29;20058;-70
2021/12/24 02:13:07;;;;;;;;;;;;;;;;;;4856127;29;20128;-69
2021/12/24 02:16:03;;;;;;;8.75;1.83;;;;;;;;;;4893905;29;19923;-67
2021/12/24 02:29:54;;;;;;;7.35;2.10;;;;;;;;;;4837646;29;20500;-68
2021/12/24 02:32:26;;;;;;;12.27;1.90;;;;;;;;;;4834504;29;20121;-67
2021/12/24 02:34:58;;;;;;;12.40;1.77;;;;;;;;;;4828387;29;20050;-67
2021/12/24 02:37:28;;;;;;;15.40;2.50;;;;;;;;;;4826060;29;20062;-68
2021/12/24 02:39:58;;;;;;;10.90;2.00;;;;;;;;;;4847233;29;20419;-72
2021/12/24 02:42:31;;;;;;;10.10;1.75;;;;;;;;;;4822444;29;20062;-68
2021/12/24 02:45:03;;;;;;;9.00;1.70;;;;;;;;;;4807435;29;20058;-68
2021/12/24 02:47:56;;;;;;;6.43;1.65;;;;;;;;;;4837007;29;20414;-68
2021/12/24 02:56:05;;;;;;;9.13;1.88;;;;;;;;;;4860521;29;20502;-67
2021/12/24 02:58:45;;;;;;;10.48;1.92;;;;;;;;;;4870855;29;20076;-67
2021/12/24 03:01:20;;;;;;;11.27;1.73;;;;;;;;;;4873489;29;20060;-67
2021/12/24 03:03:51;;;;;;;6.47;1.95;;;;;;;;;;4874630;29;20057;-67
2021/12/24 03:06:26;;;;;;;9.50;1.90;;;;;;;;;;4837086;29;20058;-67
2021/12/24 03:08:57;;;;;;;11.63;2.17;;;;;;;;;;4819618;29;20058;-67
2021/12/24 03:11:27;;;;;;;7.45;1.83;;;;;;;;;;4840576;29;20061;-69
2021/12/24 03:13:58;;;;;;;9.57;1.90;;;;;;;;;;4892662;29;20160;-68
2021/12/24 03:16:29;;;;;;;10.38;1.85;;;;;;;;;;4856162;29;20578;-67
2021/12/24 03:19:00;;;;;;;8.25;2.03;;;;;;;;;;4874002;29;20056;-70
2021/12/24 03:21:44;;;;;;;7.13;1.70;;;;;;;;;;4840578;29;20057;-67
2021/12/24 03:26:50;;;;;;;6.95;2.42;;;;;;;;;;4915424;29;20327;-67
2021/12/24 03:29:21;;;;;;;15.95;1.80;;;;;;;;;;4896659;29;20061;-67
2021/12/24 03:31:51;;;;;;;13.27;2.25;;;;;;;;;;4861099;29;20065;-68
2021/12/24 03:34:23;;;;;;;10.05;2.13;;;;;;;;;;4859479;29;20072;-67
2021/12/24 03:36:54;;;;;;;11.05;2.40;;;;;;;;;;4836604;29;20054;-68
2021/12/24 03:39:28;;;;;;;12.23;2.75;;;;;;;;;;4848265;29;20054;-67
2021/12/24 03:41:59;;;;;;;10.85;2.53;;;;;;;;;;4880791;29;20056;-68
2021/12/24 03:44:35;;;;;;;12.98;2.22;;;;;;;;;;4858924;29;20050;-67
2021/12/24 03:47:18;;;;;;;8.63;2.20;;;;;;;;;;4896110;29;20056;-68
2021/12/24 03:50:11;;;;;;;8.55;2.08;;;;;;;;;;4869856;29;20052;-68
2021/12/24 03:55:12;;;;;;;15.68;3.03;;;;;;;;;;4914663;29;20398;-67
2021/12/24 03:57:44;;;;;;;12.07;3.20;;;;;;;;;;4896799;29;20467;-68
2021/12/24 04:00:34;;;;;;;11.50;2.70;;;;;;;;;;4927771;29;20066;-68
2021/12/24 04:03:21;;;;;;;14.48;2.85;;;;;;;;;;4915208;29;20084;-67
2021/12/24 04:06:03;;;;;;;12.02;3.17;;;;;;;;;;4914921;29;20406;-68
2021/12/24 04:08:38;;;;;;;21.85;3.78;;;;;;;;;;4917374;29;20460;-68
2021/12/24 04:11:27;;;;;;;;;;;;;;;;;;4938995;28;20431;-68
2021/12/24 04:13:58;;;;;;;12.60;3.10;;;;;;;;;;4928557;29;20391;-68
2021/12/24 04:16:30;;;;;;;15.15;3.65;;;;;;;;;;4925600;29;20064;-67
2021/12/24 04:24:56;;;;;;;19.75;3.95;;;;;;;;;;4930246;29;20048;-67
2021/12/24 04:27:30;;;;;;;17.02;4.15;;;;;;;;;;4929269;29;20048;-67
2021/12/24 04:30:10;;;;;;;12.98;3.53;;;;;;;;;;4952418;29;20058;-69
2021/12/24 04:52:20;;;;;;;18.65;4.22;;;;;;;;;;4854102;29;20049;-69
2021/12/24 05:03:31;;;;;;;15.60;4.22;;;;;;;;;;4857538;29;20053;-70
2021/12/24 05:09:06;;;;;;;10.18;4.47;;;;;;;;;;4838807;29;20448;-69
2021/12/24 05:11:38;;;;;;;17.73;4.20;;;;;;;;;;4820634;29;20418;-70
2021/12/24 05:14:14;;;;;;;17.95;5.25;;;;;;;;;;4820226;29;20065;-68
2021/12/24 05:23:34;;;;;;;20.08;4.40;;;;;;;;;;4753417;30;20501;-68
2021/12/24 05:26:06;;;;;;;13.30;3.50;;;;;;;;;;4720127;30;20063;-68
2021/12/24 05:28:38;;;;;;;9.52;3.67;;;;;;;;;;4766623;30;20059;-68
2021/12/24 05:31:14;;;;;;;13.57;3.90;;;;;;;;;;4766181;30;20533;-68
2021/12/24 05:33:44;;;;;;;14.43;3.85;;;;;;;;;;4784134;30;20077;-69
2021/12/24 05:36:15;;;;;;;13.60;3.38;;;;;;;;;;4754052;30;20052;-68
2021/12/24 05:38:46;;;;;;;15.95;4.28;;;;;;;;;;4802094;29;20087;-68
2021/12/24 05:41:21;;;;;;;15.60;4.32;;;;;;;;;;4783183;30;20055;-68
2021/12/24 05:43:52;;;;;;;16.05;4.32;;;;;;;;;;4764187;30;20056;-68
2021/12/24 05:46:28;;;;;;;14.80;4.85;;;;;;;;;;4793626;29;20418;-70
2021/12/24 05:49:12;;;;;;;13.07;4.32;;;;;;;;;;4827254;29;20053;-67
2021/12/24 05:51:56;;;;;;;18.60;5.22;;;;;;;;;;4846291;29;20065;-69
2021/12/24 05:54:34;;;;;;;16.17;4.78;;;;;;;;;;4825430;29;20051;-68
2021/12/24 05:57:05;;;;;;;13.52;4.35;;;;;;;;;;4855112;29;20532;-67
2021/12/24 05:59:35;;;;;;;16.38;5.45;;;;;;;;;;4874939;29;20520;-69
2021/12/24 06:02:07;;;;;;;15.63;4.93;;;;;;;;;;4875064;29;20057;-68
2021/12/24 06:04:38;;;;;;;14.73;4.78;;;;;;;;;;4856338;29;20514;-68
2021/12/24 06:07:08;;;;;;;18.05;4.72;;;;;;;;;;4840908;29;20053;-68
2021/12/24 06:09:38;;;;;;;14.05;4.85;;;;;;;;;;4823411;29;20443;-69
2021/12/24 06:12:08;;;;;;;16.98;5.18;;;;;;;;;;4834646;29;20492;-68
2021/12/24 06:14:40;;;;;;;18.40;5.13;;;;;;;;;;4838358;29;20120;-69
2021/12/24 06:17:16;;;;;;;16.77;5.47;;;;;;;;;;4838180;29;20058;-69
2021/12/24 06:19:46;;;;;;;13.05;5.18;;;;;;;;;;4842792;29;20057;-68
2021/12/24 06:22:16;;;;;;;16.70;4.70;;;;;;;;;;4856516;29;20064;-68
2021/12/24 06:24:47;;;;;;;17.45;4.38;;;;;;;;;;4870440;29;20072;-68
2021/12/24 06:27:17;;;;;;;14.57;5.93;;;;;;;;;;4874895;29;20061;-69
2021/12/24 06:29:47;;;;;;;19.50;4.53;;;;;;;;;;4855880;29;20058;-69
2021/12/24 06:32:17;;;;;;;13.70;4.35;;;;;;;;;;4883414;29;20057;-68
2021/12/24 06:34:49;;;;;;;14.80;3.40;;;;;;;;;;4883921;29;20068;-70
2021/12/24 06:37:20;;;;;;;14.15;3.28;;;;;;;;;;4899663;29;20064;-70
2021/12/24 06:39:51;;;;;;;13.52;3.72;;;;;;;;;;4903164;29;20064;-68
2021/12/24 06:42:21;;;;;;;14.55;4.10;;;;;;;;;;4912220;29;20060;-69
2021/12/24 06:44:53;;;;;;;15.00;4.82;;;;;;;;;;4932385;29;20060;-68
2021/12/24 06:47:24;;;;;;;13.77;5.30;;;;;;;;;;4927440;29;20129;-68
2021/12/24 06:49:54;;;;;;;14.40;3.60;;;;;;;;;;4912320;29;20056;-69
2021/12/24 06:52:24;;;;;;;12.13;4.60;;;;;;;;;;4893316;29;20065;-68
2021/12/24 06:54:55;;;;;;;14.55;4.32;;;;;;;;;;4893188;29;20061;-68
2021/12/24 06:57:27;;;;;;;14.95;4.80;;;;;;;;;;4895332;29;20244;-68
2021/12/24 06:59:59;;;;;;;;;;;;;;;;;;4895289;29;20552;-69
2021/12/24 07:02:29;;;;;;;11.88;4.38;;;;;;;;;;4897032;29;19923;-68
2021/12/24 07:04:59;;;;;;;15.38;4.72;;;;;;;;;;4897161;29;20068;-68
2021/12/24 07:07:30;;;;;;;18.02;5.35;;;;;;;;;;4908177;29;20052;-69
2021/12/24 07:10:04;;;;;;;12.80;4.85;;;;;;;;;;4944972;29;20066;-69
2021/12/24 07:12:35;;;;;;;18.83;5.32;;;;;;;;;;4915755;29;20056;-69
2021/12/24 07:15:07;;;;;;;13.68;5.47;;;;;;;;;;4915858;29;20464;-69
2021/12/24 07:17:38;;;;;;;12.82;4.55;;;;;;;;;;4884135;29;20071;-69
2021/12/24 07:20:09;;;;;;;20.10;4.63;;;;;;;;;;4915603;29;20056;-69
2021/12/24 07:22:39;;;;;;;8.85;3.67;;;;;;;;;;4900498;29;20060;-68
2021/12/24 07:25:10;;;;;;;10.60;3.97;;;;;;;;;;4888055;29;20045;-69
2021/12/24 07:27:40;;;;;;;14.55;3.97;;;;;;;;;;4915062;29;20548;-69
2021/12/24 07:30:12;;;;;;;15.65;4.07;;;;;;;;;;4915622;29;20178;-69
2021/12/24 07:32:43;;;;;;;16.50;4.00;;;;;;;;;;4915279;29;20056;-68
2021/12/24 07:35:13;;;;;;;12.88;4.13;;;;;;;;;;4899323;29;20063;-69
2021/12/24 07:37:43;;;;;;;13.43;4.05;;;;;;;;;;4915391;29;20063;-71
2021/12/24 07:40:16;;;;;;;15.70;4.50;;;;;;;;;;4924388;29;20056;-69
2021/12/24 07:42:48;;;;;;;13.65;4.25;;;;;;;;;;4933964;29;20054;-68
2021/12/24 07:45:19;;;;;;;17.52;5.03;;;;;;;;;;4918742;29;20443;-68
2021/12/24 07:48:06;;;;;;;12.90;5.13;;;;;;;;;;4896219;29;20444;-69
2021/12/24 07:53:36;;;;;;;15.48;3.75;;;;;;;;;;4859664;29;20069;-70
2021/12/24 07:56:06;;;;;;;12.05;3.97;;;;;;;;;;4859138;29;20061;-69
2021/12/24 07:58:36;;;;;;;10.60;3.72;;;;;;;;;;4877336;29;20533;-69
2021/12/24 08:01:06;;;;;;;15.45;4.00;;;;;;;;;;4861826;29;20399;-69
2021/12/24 08:03:37;;;;;;;12.90;3.80;;;;;;;;;;4839883;29;20058;-69
2021/12/24 08:06:08;;;;;;;12.02;4.55;;;;;;;;;;4807330;29;20432;-69
2021/12/24 08:08:38;;;;;;;12.27;3.83;;;;;;;;;;4821906;29;20054;-70
2021/12/24 08:11:08;;;;;;;10.88;3.95;;;;;;;;;;4817221;29;20062;-70
2021/12/24 08:13:38;;;;;;;9.07;3.55;;;;;;;;;;4791677;29;20066;-70
2021/12/24 08:16:10;;;;;;;13.55;4.10;;;;;;;;;;4803179;29;20061;-69
2021/12/24 08:18:43;;;;;;;13.88;3.20;;;;;;;;;;4818724;29;20058;-68
2021/12/24 08:21:14;;;;;;;11.95;3.33;;;;;;;;;;4836474;29;20054;-68
2021/12/24 08:23:46;;;;;;;15.80;3.80;;;;;;;;;;4821719;29;20508;-68
2021/12/24 08:26:21;;;;;;;11.73;3.60;;;;;;;;;;4817098;29;20058;-69
2021/12/24 08:28:52;;;;;;;11.98;4.18;;;;;;;;;;4840069;29;20454;-69
2021/12/24 08:31:22;;;;;;;17.17;3.55;;;;;;;;;;4839846;29;20074;-70
2021/12/24 08:33:54;;;;;;;9.50;3.60;;;;;;;;;;4840271;29;20062;-69
2021/12/24 08:36:25;;;;;;;11.80;3.80;;;;;;;;;;4878551;29;20065;-69
2021/12/24 08:38:55;;;;;;;15.27;4.13;;;;;;;;;;4895802;29;20437;-69
2021/12/24 08:41:26;;;;;;;15.40;3.45;;;;;;;;;;4895210;29;20064;-69
2021/12/24 08:43:56;;;;;;;12.23;3.67;;;;;;;;;;4895128;29;20513;-70
2021/12/24 08:46:27;;;;;;;15.15;4.00;;;;;;;;;;4856419;29;20061;-70
2021/12/24 08:48:58;;;;;;;19.05;4.00;;;;;;;;;;4895326;29;20163;-69
2021/12/24 08:51:28;;;;;;;12.93;3.55;;;;;;;;;;4894894;29;20071;-69
2021/12/24 08:53:59;;;;;;;11.63;3.78;;;;;;;;;;4905636;29;20595;-70
2021/12/24 08:56:29;;;;;;;14.13;4.18;;;;;;;;;;4915347;29;20070;-69
2021/12/24 08:59:00;;;;;;;15.68;3.80;;;;;;;;;;4922928;29;20572;-69
2021/12/24 09:01:30;;;;;;;15.38;3.85;;;;;;;;;;4932932;29;20056;-69
2021/12/24 09:04:01;;;;;;;9.15;3.45;;;;;;;;;;4967333;28;20062;-69
2021/12/24 09:06:31;;;;;;;13.63;3.58;;;;;;;;;;4951841;29;20067;-70
2021/12/24 09:09:03;;;;;;;12.93;4.10;;;;;;;;;;4916710;29;20161;-70
2021/12/24 09:11:35;;;;;;;20.85;3.33;;;;;;;;;;4932964;29;20060;-69
2021/12/24 09:14:06;;;;;;;11.02;3.35;;;;;;;;;;4948431;29;20081;-71
2021/12/24 09:16:39;;;;;;;11.20;3.35;;;;;;;;;;4959528;28;20546;-71
2021/12/24 09:19:13;;;;;;;9.18;3.50;;;;;;;;;;4961242;28;20510;-69
2021/12/24 09:21:43;;;;;;;10.32;3.85;;;;;;;;;;4966938;28;20439;-69
2021/12/24 09:24:14;;;;;;;16.00;3.72;;;;;;;;;;4978491;28;20047;-69
2021/12/24 09:26:45;;;;;;;12.55;3.60;;;;;;;;;;4926631;28;20058;-69
2021/12/24 09:29:15;;;;;;;19.23;3.97;;;;;;;;;;4944823;28;20051;-71
2021/12/24 09:31:45;;;;;;;8.55;3.72;;;;;;;;;;4949947;28;20066;-69
2021/12/24 09:34:16;;;;;;;17.33;4.15;;;;;;;;;;4942862;29;20059;-69
2021/12/24 09:36:47;;;;;;;12.25;3.63;;;;;;;;;;4915812;29;20059;-70
2021/12/24 09:39:17;;;;;;;11.70;3.88;;;;;;;;;;4913002;29;20075;-69
2021/12/24 09:41:48;;;;;;;10.05;3.58;;;;;;;;;;4914390;29;20056;-69
2021/12/24 09:44:18;;;;;;;10.95;3.65;;;;;;;;;;4924399;29;20074;-70
2021/12/24 09:46:49;;;;;;;11.65;4.00;;;;;;;;;;4933175;29;20481;-70
2021/12/24 09:49:20;;;;;;;6.78;3.33;;;;;;;;;;4940040;29;20056;-69
2021/12/24 09:51:52;;;;;;;16.75;3.95;;;;;;;;;;4916310;29;20063;-69
2021/12/24 09:54:23;;;;;;;15.52;3.38;;;;;;;;;;4951254;29;20447;-68
2021/12/24 09:56:56;;;;;;;9.30;2.95;;;;;;;;;;4953144;28;20059;-69
2021/12/24 09:59:26;;;;;;;12.45;2.78;;;;;;;;;;4931867;29;20068;-68
2021/12/24 10:01:59;;;;;;;13.32;3.10;;;;;;;;;;4941728;29;20082;-70
2021/12/24 10:04:32;;;;;;;17.95;3.67;;;;;;;;;;4950923;29;20047;-68
2021/12/24 10:07:16;;;;;;;13.68;3.92;;;;;;;;;;4950774;29;20055;-69
2021/12/24 10:09:49;;;;;;;15.63;4.00;;;;;;;;;;4951056;29;20059;-69
2021/12/24 10:12:24;;;;;;;22.42;4.28;;;;;;;;;;4944520;29;20063;-68
2021/12/24 10:14:57;;;;;;;13.27;4.07;;;;;;;;;;4963390;28;20063;-67
2021/12/24 10:17:31;;;;;;;18.90;4.38;;;;;;;;;;4983987;28;20062;-69
2021/12/24 10:20:17;;;;;;;16.63;3.30;;;;;;;;;;4989599;28;20051;-67
2021/12/24 10:22:54;;;;;;;10.48;4.10;;;;;;;;;;4940827;28;20050;-67
2021/12/24 10:25:30;;;;;;;11.57;4.18;;;;;;;;;;4989042;28;20050;-69
2021/12/24 10:28:10;;;;;;;9.70;3.60;;;;;;;;;;4969698;28;20062;-66
2021/12/24 10:30:40;;;;;;;6.65;2.22;;;;;;;;;;4953728;28;20071;-66
2021/12/24 10:33:13;;;;;;;7.00;1.63;;;;;;;;;;4969933;28;20070;-69
2021/12/24 10:35:59;;;;;;;4.68;1.45;;;;;;;;;;4937156;28;20051;-64
2021/12/24 10:38:31;;;;;;;6.00;1.77;;;;;;;;;;4969649;28;20059;-67
2021/12/24 10:41:07;;;;;;;5.80;1.80;;;;;;;;;;4938506;28;20050;-65
2021/12/24 10:43:39;;;;;;;4.72;1.35;;;;;;;;;;4950063;29;20055;-66
2021/12/24 10:46:24;;;;;;;6.70;1.58;;;;;;;;;;4950100;29;20054;-65
2021/12/24 10:49:08;;;;;;;3.20;1.52;;;;;;;;;;4930485;29;20055;-66
2021/12/24 10:52:12;;;;;;;1.88;0.95;;;;;;;;;;4931072;29;20078;-63
2021/12/24 10:54:53;;;;;;;5.45;1.40;;;;;;;;;;4899571;29;20066;-74
2021/12/24 10:57:32;;;;;;;4.28;1.30;;;;;;;;;;4915766;29;20052;-65
2021/12/24 11:00:26;;;;;;;6.70;1.70;;;;;;;;;;4931488;29;20078;-71
2021/12/24 11:03:09;;;;;;;5.18;1.55;;;;;;;;;;4922386;29;20067;-65
2021/12/24 11:05:47;;;;;;;11.40;1.30;;;;;;;;;;4905955;29;20058;-64
2021/12/24 11:08:19;;;;;;;;;;;;;;;;;;4912124;29;20056;-65
2021/12/24 11:10:51;;;;;;;7.07;1.67;;;;;;;;;;4912053;29;19930;-65
2021/12/24 11:13:39;;;;;;;5.00;1.52;;;;;;;;;;4896257;29;20172;-67
2021/12/24 11:16:21;;;;;;;5.22;1.52;;;;;;;;;;4911849;29;20048;-66
2021/12/24 11:19:01;;;;;;;5.43;1.52;;;;;;;;;;4938466;28;20062;-64
2021/12/24 11:21:33;;;;;;;6.25;1.50;;;;;;;;;;4968919;28;20091;-65
2021/12/24 11:24:04;;;;;;;3.95;2.05;;;;;;;;;;4963167;28;20055;-66
2021/12/24 11:26:40;;;;;;;5.22;1.95;;;;;;;;;;4956924;28;20058;-71
2021/12/24 11:29:11;;;;;;;4.55;1.70;;;;;;;;;;4958048;28;20051;-68
2021/12/24 11:31:41;;;;;;;4.57;1.48;;;;;;;;;;4937213;28;20051;-64
2021/12/24 11:34:12;;;;;;;4.50;1.33;;;;;;;;;;4962891;28;20058;-71
2021/12/24 11:36:43;;;;;;;5.07;1.50;;;;;;;;;;4946060;29;20056;-67
2021/12/24 11:39:14;;;;;;;2.97;1.10;;;;;;;;;;4911709;29;20060;-65
2021/12/24 11:41:44;;;;;;;4.32;1.65;;;;;;;;;;4911260;29;20060;-65
2021/12/24 11:44:17;;;;;;;2.28;1.10;;;;;;;;;;4908827;29;20060;-65
2021/12/24 11:46:49;;;;;;;7.43;1.55;;;;;;;;;;4891985;29;20051;-65
2021/12/24 11:49:19;;;;;;;10.43;1.58;;;;;;;;;;4952608;29;20847;-65
2021/12/24 11:51:49;;;;;;;4.18;1.38;;;;;;;;;;4920571;29;20059;-66
2021/12/24 11:54:20;;;;;;;6.50;1.92;;;;;;;;;;4952453;29;20051;-67
2021/12/24 11:56:54;;;;;;;6.65;1.63;;;;;;;;;;4953050;29;20055;-65
2021/12/24 11:59:38;;;;;;;3.92;1.42;;;;;;;;;;4971162;28;20098;-68
2021/12/24 12:02:08;;;;;;;7.82;1.30;;;;;;;;;;4959742;28;20473;-65
2021/12/24 12:04:40;;;;;;;4.10;1.20;;;;;;;;;;4952979;29;20072;-65
2021/12/24 12:07:15;;;;;;;10.65;1.85;;;;;;;;;;4945603;28;20059;-66
2021/12/24 12:09:47;;;;;;;2.67;1.20;;;;;;;;;;4933297;29;20056;-66
2021/12/24 12:12:35;;;;;;;4.25;1.50;;;;;;;;;;4902335;29;20551;-67
2021/12/24 12:15:26;;;;;;;3.75;1.20;;;;;;;;;;4920643;29;20055;-66
2021/12/24 12:17:58;;;;;;;3.22;1.30;;;;;;;;;;4970418;28;20069;-68
2021/12/24 12:20:48;;;;;;;3.35;1.30;;;;;;;;;;4972096;28;20059;-66
2021/12/24 12:24:03;;;;;;;8.18;1.52;;;;;;;;;;4991314;28;20047;-69
2021/12/24 12:26:37;;;;;;;3.88;1.17;;;;;;;;;;4994588;28;20049;-65
2021/12/24 12:29:21;;;;;;;5.78;1.65;;;;;;;;;;4987404;28;20062;-63
2021/12/24 12:31:55;;;;;;;3.05;1.27;;;;;;;;;;5010795;28;20054;-65
2021/12/24 12:34:39;;;;;;;4.00;1.00;;;;;;;;;;4994874;28;20050;-68
2021/12/24 12:37:28;;;;;;;5.60;1.30;;;;;;;;;;5000012;28;20054;-65
2021/12/24 12:40:18;;;;;;;3.13;1.20;;;;;;;;;;4991564;28;20522;-68
2021/12/24 12:42:51;;;;;;;6.95;1.42;;;;;;;;;;4957926;28;20058;-66
2021/12/24 12:45:46;;;;;;;5.30;1.42;;;;;;;;;;5004549;28;20509;-66
2021/12/24 12:48:26;;;;;;;3.00;1.60;;;;;;;;;;5014297;28;20062;-65
2021/12/24 12:51:00;;;;;;;4.05;1.25;;;;;;;;;;4982320;28;20060;-65
2021/12/24 12:53:37;;;;;;;6.88;1.33;;;;;;;;;;5015589;28;20057;-67
2021/12/24 12:56:21;;;;;;;3.70;1.08;;;;;;;;;;5010754;28;20061;-67
2021/12/24 12:59:00;;;;;;;;;;;;;;;;;;5010648;28;20423;-65
2021/12/24 13:01:33;;;;;;;2.88;0.98;;;;;;;;;;5007425;28;19922;-68
2021/12/24 13:04:05;;;;;;;2.92;0.95;;;;;;;;;;4971321;28;20065;-65
2021/12/24 13:06:42;;;;;;;3.40;1.13;;;;;;;;;;4941822;28;20050;-67
2021/12/24 13:09:16;;;;;;;5.82;2.22;;;;;;;;;;4990434;28;20426;-66
2021/12/24 13:11:50;;;;;;;6.57;1.10;;;;;;;;;;4975279;28;20592;-71
2021/12/24 13:14:26;;;;;;;4.45;1.25;;;;;;;;;;4971145;28;20059;-67
2021/12/24 13:22:36;;;;;;;3.15;0.93;;;;;;;;;;4913529;29;20048;-66
2021/12/24 13:25:16;;;;;;;5.28;1.17;;;;;;;;;;4882448;29;20060;-72
2021/12/24 13:27:54;;;;;;;3.28;1.13;;;;;;;;;;4894348;29;20055;-67
2021/12/24 13:30:32;;;;;;;4.38;1.35;;;;;;;;;;4895271;29;20055;-65
2021/12/24 13:33:07;;;;;;;4.22;1.08;;;;;;;;;;4893687;29;20105;-67
2021/12/24 13:35:42;;;;;;;5.75;1.55;;;;;;;;;;4894454;29;20064;-65
2021/12/24 13:38:26;;;;;;;2.75;1.02;;;;;;;;;;4932127;29;20549;-66
2021/12/24 13:40:58;;;;;;;6.28;1.08;;;;;;;;;;4932211;29;20056;-65
2021/12/24 13:43:31;;;;;;;4.30;2.58;;;;;;;;;;4932348;29;20447;-67
2021/12/24 13:46:07;;;;;;;6.38;1.35;;;;;;;;;;4931754;29;20068;-65
2021/12/24 13:56:48;;;;;;;3.85;1.00;;;;;;;;;;4970656;28;20059;-66
2021/12/24 13:59:23;;;;;;;3.88;1.52;;;;;;;;;;4979590;28;20054;-66
2021/12/24 14:01:54;;;;;;;3.80;1.10;;;;;;;;;;5009178;28;20069;-65
2021/12/24 14:04:25;;;;;;;3.00;0.88;;;;;;;;;;5012866;28;20073;-66
2021/12/24 14:06:58;;;;;;;4.00;1.08;;;;;;;;;;5009254;28;20061;-67
2021/12/24 14:09:33;;;;;;;4.38;1.25;;;;;;;;;;5008590;28;20068;-66
2021/12/24 14:12:07;;;;;;;4.00;0.98;;;;;;;;;;4960776;28;20068;-72
2021/12/24 14:14:53;;;;;;;5.82;0.90;;;;;;;;;;4993305;28;20053;-65
2021/12/24 14:17:48;;;;;;;4.38;1.20;;;;;;;;;;5048813;28;20398;-67
2021/12/24 14:20:24;;;;;;;3.40;1.20;;;;;;;;;;5048869;28;20103;-66
2021/12/24 14:22:55;;;;;;;5.07;1.02;;;;;;;;;;5032037;28;20053;-67
2021/12/24 14:25:25;;;;;;;2.00;0.80;;;;;;;;;;5048844;28;20045;-67
2021/12/24 14:27:55;;;;;;;2.75;0.70;;;;;;;;;;5015265;28;20057;-69
2021/12/24 14:30:25;;;;;;;4.60;1.45;;;;;;;;;;5048566;28;20528;-64
2021/12/24 14:32:59;;;;;;;2.25;0.70;;;;;;;;;;5048476;28;20052;-67
2021/12/24 14:35:31;;;;;;;4.10;1.35;;;;;;;;;;5031966;28;20064;-66
2021/12/24 14:38:01;;;;;;;2.15;0.80;;;;;;;;;;5069228;28;20052;-65
2021/12/24 14:40:33;;;;;;;4.75;0.90;;;;;;;;;;5091200;28;20040;-66
2021/12/24 14:43:18;;;;;;;3.78;1.15;;;;;;;;;;5034912;28;20467;-68
2021/12/24 14:45:49;;;;;;;;;;;;;;;;;;5069183;28;20068;-65
2021/12/24 14:48:27;;;;;;;3.08;0.70;;;;;;;;;;5068465;28;19928;-66
2021/12/24 14:51:03;;;;;;;;;;;;;;;;;;5035503;28;20036;-64
2021/12/24 14:53:38;;;;;;;3.28;1.15;;;;;;;;;;5068146;28;19921;-65
2021/12/24 14:56:15;;;;;;;5.18;1.30;;;;;;;;;;5035234;28;20635;-70
2021/12/24 14:58:55;;;;;;;4.50;1.42;;;;;;;;;;5052331;28;20053;-64
2021/12/24 15:01:29;;;;;;;3.88;0.82;;;;;;;;;;5048123;28;20096;-64
2021/12/24 15:04:05;;;;;;;3.67;0.60;;;;;;;;;;5015487;28;20056;-64
2021/12/24 15:06:48;;;;;;;2.60;0.90;;;;;;;;;;5048344;28;20049;-64
2021/12/24 15:09:27;;;;;;;18.65;9.40;;;;;;;;;;5048403;28;20054;-64
2021/12/24 15:11:57;;;;;;;3.58;1.00;;;;;;;;;;5048053;28;20048;-64
2021/12/24 15:14:30;;;;;;;5.93;1.20;;;;;;;;;;5015120;28;20048;-70
2021/12/24 15:17:00;;;;;;;3.58;0.90;;;;;;;;;;5048200;28;20056;-65
2021/12/24 15:19:31;;;;;;;2.15;0.90;;;;;;;;;;4956256;28;20046;-63
2021/12/24 15:22:00;;;;;;;2.25;0.73;;;;;;;;;;4992380;28;20498;-64
2021/12/24 15:24:31;;;;;;;3.53;0.98;;;;;;;;;;4992910;28;20058;-64
2021/12/24 15:27:04;;;;;;;2.50;0.90;;;;;;;;;;4972820;28;20063;-66
2021/12/24 15:29:34;;;;;;;3.53;1.05;;;;;;;;;;4973300;28;20063;-70
2021/12/24 15:32:05;;;;;;;4.30;0.80;;;;;;;;;;4972810;28;20188;-64
2021/12/24 15:34:35;;;;;;;4.43;1.02;;;;;;;;;;4973024;28;20051;-65
2021/12/24 15:37:06;;;;;;;3.55;0.82;;;;;;;;;;4953128;29;20066;-68
2021/12/24 15:39:36;;;;;;;2.38;0.60;;;;;;;;;;4967537;28;20066;-64
2021/12/24 15:42:06;;;;;;;3.22;1.00;;;;;;;;;;4972742;28;20062;-64
2021/12/24 15:44:42;;;;;;;2.58;1.10;;;;;;;;;;4972898;28;20054;-65
2021/12/24 15:47:13;;;;;;;2.35;0.80;;;;;;;;;;4953112;29;20059;-65
2021/12/24 15:49:44;;;;;;;4.65;0.93;;;;;;;;;;4953496;29;20051;-64
2021/12/24 15:52:14;;;;;;;7.20;0.98;;;;;;;;;;4953208;29;20070;-63
2021/12/24 15:54:44;;;;;;;2.22;0.70;;;;;;;;;;4937942;29;20050;-63
2021/12/24 15:57:15;;;;;;;2.15;0.90;;;;;;;;;;4937388;29;21119;-63
2021/12/24 15:59:46;;;;;;;1.75;0.60;;;;;;;;;;4953543;29;20066;-64
2021/12/24 16:02:16;;;;;;;4.75;0.95;;;;;;;;;;4953294;29;20070;-67
2021/12/24 16:04:46;;;;;;;2.58;0.73;;;;;;;;;;4968598;28;20058;-69
2021/12/24 16:07:17;;;;;;;4.60;1.00;;;;;;;;;;5015112;28;20053;-70
2021/12/24 16:09:48;;;;;;;3.88;1.25;;;;;;;;;;5051120;28;20552;-67
2021/12/24 16:12:19;;;;;;;4.10;1.20;;;;;;;;;;5051098;28;20056;-65
2021/12/24 16:14:49;;;;;;;2.65;0.75;;;;;;;;;;4991619;28;20062;-64
2021/12/24 16:17:19;;;;;;;2.83;0.95;;;;;;;;;;4952854;29;20069;-70
2021/12/24 16:19:50;;;;;;;3.25;1.10;;;;;;;;;;4953343;29;20063;-67
2021/12/24 16:22:21;;;;;;;3.03;1.02;;;;;;;;;;4952975;29;20554;-67
2021/12/24 16:24:51;;;;;;;3.65;1.20;;;;;;;;;;4972516;28;20058;-67
2021/12/24 16:27:22;;;;;;;5.70;0.98;;;;;;;;;;4920898;29;20492;-64
2021/12/24 16:29:54;;;;;;;2.53;1.00;;;;;;;;;;4948993;29;20047;-67
2021/12/24 16:32:29;;;;;;;5.15;0.95;;;;;;;;;;4932401;29;20195;-64
2021/12/24 16:35:07;;;;;;;2.22;0.80;;;;;;;;;;4933367;29;20056;-68
2021/12/24 16:37:39;;;;;;;3.17;1.10;;;;;;;;;;4933313;29;20051;-64
2021/12/24 16:40:12;;;;;;;1.77;0.80;;;;;;;;;;4914075;29;20052;-65
2021/12/24 16:42:47;;;;;;;2.95;1.00;;;;;;;;;;4883342;29;20520;-64
2021/12/24 16:45:38;;;;;;;1.48;0.80;;;;;;;;;;4882830;29;20079;-65
2021/12/24 16:48:10;;;;;;;2.65;1.30;;;;;;;;;;4914323;29;20582;-64
2021/12/24 16:50:43;;;;;;;8.40;1.15;;;;;;;;;;4913859;29;20055;-69
2021/12/24 16:53:14;;;;;;;2.75;1.00;;;;;;;;;;4929756;29;20055;-64
2021/12/24 16:55:45;;;;;;;3.05;0.90;;;;;;;;;;4933485;28;20169;-64
2021/12/24 16:58:15;;;;;;;2.33;1.10;;;;;;;;;;4952074;28;20059;-66
2021/12/24 17:00:53;;;;;;;4.68;1.48;;;;;;;;;;4936221;28;20424;-69
2021/12/24 17:03:24;;;;;;;;;;;;;;;;;;4952652;28;20059;-64
2021/12/24 17:05:55;;;;;;;2.65;1.40;;;;;;;;;;4969100;28;19922;-65
2021/12/24 17:08:25;;;;;;;3.50;1.33;;;;;;;;;;4949458;29;20423;-64
2021/12/24 17:10:55;;;;;;;8.23;1.00;;;;;;;;;;4952077;28;20062;-66
2021/12/24 17:13:27;;;;;;;5.32;1.25;;;;;;;;;;4967967;28;20050;-65
2021/12/24 17:15:57;;;;;;;2.70;0.80;;;;;;;;;;4990654;28;20072;-63
2021/12/24 17:18:27;;;;;;;2.53;0.90;;;;;;;;;;4989265;28;20171;-64
2021/12/24 17:20:58;;;;;;;5.20;0.80;;;;;;;;;;4990279;28;20073;-61